sensor_id;sensor_type;location;lat;lon;timestamp;P1;durP1;ratioP1;P2;durP2;ratioP2
58294;SDS011;45705;55.592;37.460;2023-09-19T00:01:34;28.17;;;18.60;;
58294;SDS011;45705;55.592;37.460;2023-09-19T00:04:00;28.33;;;17.95;;
58294;SDS011;45705;55.592;37.460;2023-09-19T00:06:28;30.70;;;18.63;;
58294;SDS011;45705;55.592;37.460;2023-09-19T00:08:57;28.10;;;18.60;;
58294;SDS011;45705;55.592;37.460;2023-09-19T00:11:26;29.33;;;18.48;;
58294;SDS011;45705;55.592;37.460;2023-09-19T00:13:52;26.50;;;18.60;;
58294;SDS011;45705;55.592;37.460;2023-09-19T00:16:18;29.10;;;18.38;;
58294;SDS011;45705;55.592;37.460;2023-09-19T00:18:45;31.80;;;18.60;;
58294;SDS011;45705;55.592;37.460;2023-09-19T00:21:11;29.40;;;18.92;;
58294;SDS011;45705;55.592;37.460;2023-09-19T00:23:37;29.73;;;18.98;;
58294;SDS011;45705;55.592;37.460;2023-09-19T00:26:03;35.50;;;18.90;;
58294;SDS011;45705;55.592;37.460;2023-09-19T00:28:29;30.83;;;20.05;;
58294;SDS011;45705;55.592;37.460;2023-09-19T00:30:57;30.38;;;19.27;;
58294;SDS011;45705;55.592;37.460;2023-09-19T00:33:27;28.90;;;18.50;;
58294;SDS011;45705;55.592;37.460;2023-09-19T00:35:57;30.98;;;19.48;;
58294;SDS011;45705;55.592;37.460;2023-09-19T00:38:23;36.05;;;21.02;;
58294;SDS011;45705;55.592;37.460;2023-09-19T00:40:53;34.95;;;20.92;;
58294;SDS011;45705;55.592;37.460;2023-09-19T00:43:20;39.10;;;21.75;;
58294;SDS011;45705;55.592;37.460;2023-09-19T00:45:49;37.85;;;22.33;;
58294;SDS011;45705;55.592;37.460;2023-09-19T00:48:17;36.40;;;22.48;;
58294;SDS011;45705;55.592;37.460;2023-09-19T00:50:45;34.75;;;22.70;;
58294;SDS011;45705;55.592;37.460;2023-09-19T00:53:19;38.90;;;20.33;;
58294;SDS011;45705;55.592;37.460;2023-09-19T00:55:48;33.83;;;22.52;;
58294;SDS011;45705;55.592;37.460;2023-09-19T00:58:19;40.70;;;21.73;;
58294;SDS011;45705;55.592;37.460;2023-09-19T01:00:46;34.72;;;22.33;;
58294;SDS011;45705;55.592;37.460;2023-09-19T01:03:14;33.28;;;22.20;;
58294;SDS011;45705;55.592;37.460;2023-09-19T01:05:40;43.65;;;21.90;;
58294;SDS011;45705;55.592;37.460;2023-09-19T01:08:08;35.35;;;19.77;;
58294;SDS011;45705;55.592;37.460;2023-09-19T01:10:34;31.80;;;19.30;;
58294;SDS011;45705;55.592;37.460;2023-09-19T01:13:07;37.58;;;19.55;;
58294;SDS011;45705;55.592;37.460;2023-09-19T01:16:06;45.55;;;21.38;;
58294;SDS011;45705;55.592;37.460;2023-09-19T01:18:47;41.40;;;22.38;;
58294;SDS011;45705;55.592;37.460;2023-09-19T01:21:44;46.63;;;25.65;;
58294;SDS011;45705;55.592;37.460;2023-09-19T01:29:46;50.97;;;28.05;;
58294;SDS011;45705;55.592;37.460;2023-09-19T01:32:16;61.42;;;29.45;;
58294;SDS011;45705;55.592;37.460;2023-09-19T01:34:50;60.95;;;29.23;;
58294;SDS011;45705;55.592;37.460;2023-09-19T01:37:19;63.50;;;29.15;;
58294;SDS011;45705;55.592;37.460;2023-09-19T01:39:50;52.83;;;28.10;;
58294;SDS011;45705;55.592;37.460;2023-09-19T01:42:24;55.65;;;28.67;;
58294;SDS011;45705;55.592;37.460;2023-09-19T01:45:06;57.35;;;28.88;;
58294;SDS011;45705;55.592;37.460;2023-09-19T01:47:40;67.32;;;33.45;;
58294;SDS011;45705;55.592;37.460;2023-09-19T01:50:20;72.35;;;33.35;;
58294;SDS011;45705;55.592;37.460;2023-09-19T01:53:03;80.82;;;36.25;;
58294;SDS011;45705;55.592;37.460;2023-09-19T01:55:36;114.13;;;39.53;;
58294;SDS011;45705;55.592;37.460;2023-09-19T01:58:20;116.57;;;41.47;;
58294;SDS011;45705;55.592;37.460;2023-09-19T02:00:52;122.80;;;41.30;;
58294;SDS011;45705;55.592;37.460;2023-09-19T02:05:50;116.82;;;42.58;;
58294;SDS011;45705;55.592;37.460;2023-09-19T02:08:20;116.78;;;41.08;;
58294;SDS011;45705;55.592;37.460;2023-09-19T02:10:51;115.88;;;40.47;;
58294;SDS011;45705;55.592;37.460;2023-09-19T02:13:20;121.43;;;45.13;;
58294;SDS011;45705;55.592;37.460;2023-09-19T02:15:47;123.53;;;43.85;;
58294;SDS011;45705;55.592;37.460;2023-09-19T02:18:13;128.30;;;45.38;;
58294;SDS011;45705;55.592;37.460;2023-09-19T02:20:41;139.50;;;46.40;;
58294;SDS011;45705;55.592;37.460;2023-09-19T02:23:09;139.10;;;48.03;;
58294;SDS011;45705;55.592;37.460;2023-09-19T02:25:36;143.05;;;49.45;;
58294;SDS011;45705;55.592;37.460;2023-09-19T02:28:03;142.45;;;46.63;;
58294;SDS011;45705;55.592;37.460;2023-09-19T02:30:31;146.77;;;47.78;;
58294;SDS011;45705;55.592;37.460;2023-09-19T02:32:58;149.38;;;51.53;;
58294;SDS011;45705;55.592;37.460;2023-09-19T02:35:27;135.10;;;48.08;;
58294;SDS011;45705;55.592;37.460;2023-09-19T02:37:53;136.35;;;47.17;;
58294;SDS011;45705;55.592;37.460;2023-09-19T02:40:19;123.63;;;45.85;;
58294;SDS011;45705;55.592;37.460;2023-09-19T02:42:46;126.80;;;44.17;;
58294;SDS011;45705;55.592;37.460;2023-09-19T02:45:16;118.55;;;42.97;;
58294;SDS011;45705;55.592;37.460;2023-09-19T02:47:43;107.60;;;41.60;;
58294;SDS011;45705;55.592;37.460;2023-09-19T02:50:10;115.07;;;42.92;;
58294;SDS011;45705;55.592;37.460;2023-09-19T02:52:43;96.70;;;38.85;;
58294;SDS011;45705;55.592;37.460;2023-09-19T02:55:13;104.32;;;42.30;;
58294;SDS011;45705;55.592;37.460;2023-09-19T02:57:46;95.38;;;38.53;;
58294;SDS011;45705;55.592;37.460;2023-09-19T03:00:17;94.05;;;40.85;;
58294;SDS011;45705;55.592;37.460;2023-09-19T03:02:48;107.93;;;42.50;;
58294;SDS011;45705;55.592;37.460;2023-09-19T03:05:14;97.50;;;40.67;;
58294;SDS011;45705;55.592;37.460;2023-09-19T03:07:41;92.43;;;39.25;;
58294;SDS011;45705;55.592;37.460;2023-09-19T03:10:09;90.97;;;38.25;;
58294;SDS011;45705;55.592;37.460;2023-09-19T03:12:35;94.95;;;38.15;;
58294;SDS011;45705;55.592;37.460;2023-09-19T03:15:02;86.38;;;36.90;;
58294;SDS011;45705;55.592;37.460;2023-09-19T03:17:31;92.13;;;37.70;;
58294;SDS011;45705;55.592;37.460;2023-09-19T03:19:58;92.70;;;38.17;;
58294;SDS011;45705;55.592;37.460;2023-09-19T03:22:25;95.70;;;38.42;;
58294;SDS011;45705;55.592;37.460;2023-09-19T03:24:52;85.47;;;36.75;;
58294;SDS011;45705;55.592;37.460;2023-09-19T03:27:18;96.05;;;38.33;;
58294;SDS011;45705;55.592;37.460;2023-09-19T03:29:44;94.68;;;37.80;;
58294;SDS011;45705;55.592;37.460;2023-09-19T03:32:10;86.95;;;36.35;;
58294;SDS011;45705;55.592;37.460;2023-09-19T03:34:37;84.82;;;34.47;;
58294;SDS011;45705;55.592;37.460;2023-09-19T03:37:08;85.07;;;36.33;;
58294;SDS011;45705;55.592;37.460;2023-09-19T03:39:35;82.28;;;35.45;;
58294;SDS011;45705;55.592;37.460;2023-09-19T03:42:01;79.75;;;35.88;;
58294;SDS011;45705;55.592;37.460;2023-09-19T03:44:29;78.53;;;35.00;;
58294;SDS011;45705;55.592;37.460;2023-09-19T03:46:56;81.07;;;35.28;;
58294;SDS011;45705;55.592;37.460;2023-09-19T03:49:22;76.50;;;34.85;;
58294;SDS011;45705;55.592;37.460;2023-09-19T03:51:48;77.28;;;34.70;;
58294;SDS011;45705;55.592;37.460;2023-09-19T03:54:14;76.10;;;34.80;;
58294;SDS011;45705;55.592;37.460;2023-09-19T03:56:40;72.72;;;34.50;;
58294;SDS011;45705;55.592;37.460;2023-09-19T03:59:06;73.10;;;33.95;;
58294;SDS011;45705;55.592;37.460;2023-09-19T04:01:34;65.63;;;33.47;;
58294;SDS011;45705;55.592;37.460;2023-09-19T04:04:00;66.78;;;31.95;;
58294;SDS011;45705;55.592;37.460;2023-09-19T04:06:34;67.75;;;33.72;;
58294;SDS011;45705;55.592;37.460;2023-09-19T04:09:01;61.50;;;31.38;;
58294;SDS011;45705;55.592;37.460;2023-09-19T04:11:32;63.23;;;30.27;;
58294;SDS011;45705;55.592;37.460;2023-09-19T04:13:58;54.92;;;30.27;;
58294;SDS011;45705;55.592;37.460;2023-09-19T04:16:24;54.15;;;28.45;;
58294;SDS011;45705;55.592;37.460;2023-09-19T04:18:50;52.30;;;28.77;;
58294;SDS011;45705;55.592;37.460;2023-09-19T04:21:17;51.67;;;27.00;;
58294;SDS011;45705;55.592;37.460;2023-09-19T04:23:43;50.33;;;26.15;;
58294;SDS011;45705;55.592;37.460;2023-09-19T04:26:09;48.38;;;25.95;;
58294;SDS011;45705;55.592;37.460;2023-09-19T04:28:35;47.28;;;27.17;;
58294;SDS011;45705;55.592;37.460;2023-09-19T04:31:03;48.53;;;24.95;;
58294;SDS011;45705;55.592;37.460;2023-09-19T04:33:29;44.38;;;24.48;;
58294;SDS011;45705;55.592;37.460;2023-09-19T04:35:55;44.28;;;25.30;;
58294;SDS011;45705;55.592;37.460;2023-09-19T04:38:21;36.78;;;23.50;;
58294;SDS011;45705;55.592;37.460;2023-09-19T04:40:47;38.55;;;22.83;;
58294;SDS011;45705;55.592;37.460;2023-09-19T04:43:13;40.30;;;22.45;;
58294;SDS011;45705;55.592;37.460;2023-09-19T04:45:40;35.90;;;21.02;;
58294;SDS011;45705;55.592;37.460;2023-09-19T04:48:06;36.80;;;22.25;;
58294;SDS011;45705;55.592;37.460;2023-09-19T04:50:34;32.55;;;21.50;;
58294;SDS011;45705;55.592;37.460;2023-09-19T04:53:00;35.72;;;21.48;;
58294;SDS011;45705;55.592;37.460;2023-09-19T04:55:26;36.40;;;20.98;;
58294;SDS011;45705;55.592;37.460;2023-09-19T04:57:52;37.35;;;21.98;;
58294;SDS011;45705;55.592;37.460;2023-09-19T05:00:19;32.67;;;20.58;;
58294;SDS011;45705;55.592;37.460;2023-09-19T05:02:49;33.75;;;19.33;;
58294;SDS011;45705;55.592;37.460;2023-09-19T05:07:43;30.10;;;18.80;;
58294;SDS011;45705;55.592;37.460;2023-09-19T05:12:37;32.35;;;19.55;;
58294;SDS011;45705;55.592;37.460;2023-09-19T05:15:04;30.15;;;18.17;;
58294;SDS011;45705;55.592;37.460;2023-09-19T05:17:33;26.15;;;17.10;;
58294;SDS011;45705;55.592;37.460;2023-09-19T05:20:00;27.42;;;17.48;;
58294;SDS011;45705;55.592;37.460;2023-09-19T05:22:40;27.50;;;16.80;;
58294;SDS011;45705;55.592;37.460;2023-09-19T05:25:07;24.08;;;16.20;;
58294;SDS011;45705;55.592;37.460;2023-09-19T05:27:32;24.95;;;16.17;;
58294;SDS011;45705;55.592;37.460;2023-09-19T05:29:59;23.80;;;16.02;;
58294;SDS011;45705;55.592;37.460;2023-09-19T05:32:25;23.58;;;15.55;;
58294;SDS011;45705;55.592;37.460;2023-09-19T05:34:51;24.80;;;14.85;;
58294;SDS011;45705;55.592;37.460;2023-09-19T05:37:21;21.23;;;14.95;;
58294;SDS011;45705;55.592;37.460;2023-09-19T05:39:49;27.63;;;16.42;;
58294;SDS011;45705;55.592;37.460;2023-09-19T05:42:15;23.33;;;15.02;;
58294;SDS011;45705;55.592;37.460;2023-09-19T05:44:41;26.63;;;16.10;;
58294;SDS011;45705;55.592;37.460;2023-09-19T05:47:07;25.30;;;16.70;;
58294;SDS011;45705;55.592;37.460;2023-09-19T05:49:35;26.70;;;16.15;;
58294;SDS011;45705;55.592;37.460;2023-09-19T05:52:07;25.35;;;16.58;;
58294;SDS011;45705;55.592;37.460;2023-09-19T05:54:33;20.90;;;16.10;;
58294;SDS011;45705;55.592;37.460;2023-09-19T05:57:02;25.10;;;16.33;;
58294;SDS011;45705;55.592;37.460;2023-09-19T05:59:28;24.83;;;16.38;;
58294;SDS011;45705;55.592;37.460;2023-09-19T06:01:55;24.38;;;15.55;;
58294;SDS011;45705;55.592;37.460;2023-09-19T06:04:21;24.17;;;17.80;;
58294;SDS011;45705;55.592;37.460;2023-09-19T06:06:47;21.98;;;15.30;;
58294;SDS011;45705;55.592;37.460;2023-09-19T06:09:14;22.40;;;15.90;;
58294;SDS011;45705;55.592;37.460;2023-09-19T06:11:41;23.77;;;16.45;;
58294;SDS011;45705;55.592;37.460;2023-09-19T06:14:08;26.70;;;18.15;;
58294;SDS011;45705;55.592;37.460;2023-09-19T06:16:36;27.88;;;19.00;;
58294;SDS011;45705;55.592;37.460;2023-09-19T06:19:03;27.25;;;19.13;;
58294;SDS011;45705;55.592;37.460;2023-09-19T06:21:31;24.45;;;18.35;;
58294;SDS011;45705;55.592;37.460;2023-09-19T06:23:57;27.83;;;19.30;;
58294;SDS011;45705;55.592;37.460;2023-09-19T06:26:24;32.13;;;20.65;;
58294;SDS011;45705;55.592;37.460;2023-09-19T06:28:52;30.67;;;20.58;;
58294;SDS011;45705;55.592;37.460;2023-09-19T06:31:18;36.08;;;20.33;;
58294;SDS011;45705;55.592;37.460;2023-09-19T06:33:46;29.23;;;21.75;;
58294;SDS011;45705;55.592;37.460;2023-09-19T06:36:12;39.60;;;24.08;;
58294;SDS011;45705;55.592;37.460;2023-09-19T06:38:38;33.03;;;24.02;;
58294;SDS011;45705;55.592;37.460;2023-09-19T06:41:05;35.55;;;24.25;;
58294;SDS011;45705;55.592;37.460;2023-09-19T06:43:31;36.03;;;24.75;;
58294;SDS011;45705;55.592;37.460;2023-09-19T06:45:58;37.53;;;25.75;;
58294;SDS011;45705;55.592;37.460;2023-09-19T06:48:25;36.17;;;25.23;;
58294;SDS011;45705;55.592;37.460;2023-09-19T06:50:55;37.38;;;24.77;;
58294;SDS011;45705;55.592;37.460;2023-09-19T06:53:21;41.63;;;25.75;;
58294;SDS011;45705;55.592;37.460;2023-09-19T06:55:49;36.78;;;24.58;;
58294;SDS011;45705;55.592;37.460;2023-09-19T06:58:16;37.83;;;25.08;;
58294;SDS011;45705;55.592;37.460;2023-09-19T07:00:42;35.80;;;25.33;;
58294;SDS011;45705;55.592;37.460;2023-09-19T07:03:08;38.28;;;24.35;;
58294;SDS011;45705;55.592;37.460;2023-09-19T07:05:37;40.42;;;25.10;;
58294;SDS011;45705;55.592;37.460;2023-09-19T07:08:05;37.80;;;23.95;;
58294;SDS011;45705;55.592;37.460;2023-09-19T07:10:38;41.25;;;24.60;;
58294;SDS011;45705;55.592;37.460;2023-09-19T07:13:14;41.40;;;24.27;;
58294;SDS011;45705;55.592;37.460;2023-09-19T07:15:43;39.22;;;23.80;;
58294;SDS011;45705;55.592;37.460;2023-09-19T07:18:15;33.50;;;22.75;;
58294;SDS011;45705;55.592;37.460;2023-09-19T07:20:45;36.22;;;23.50;;
58294;SDS011;45705;55.592;37.460;2023-09-19T07:23:18;36.30;;;23.40;;
58294;SDS011;45705;55.592;37.460;2023-09-19T07:25:47;41.70;;;22.70;;
58294;SDS011;45705;55.592;37.460;2023-09-19T07:28:14;36.15;;;22.02;;
58294;SDS011;45705;55.592;37.460;2023-09-19T07:30:40;33.33;;;21.92;;
58294;SDS011;45705;55.592;37.460;2023-09-19T07:33:07;43.28;;;23.00;;
58294;SDS011;45705;55.592;37.460;2023-09-19T07:35:38;31.42;;;21.23;;
58294;SDS011;45705;55.592;37.460;2023-09-19T07:38:07;38.33;;;21.52;;
58294;SDS011;45705;55.592;37.460;2023-09-19T07:40:35;27.88;;;22.10;;
58294;SDS011;45705;55.592;37.460;2023-09-19T07:43:01;32.90;;;21.15;;
58294;SDS011;45705;55.592;37.460;2023-09-19T07:45:29;30.45;;;21.92;;
58294;SDS011;45705;55.592;37.460;2023-09-19T07:47:55;35.45;;;22.05;;
58294;SDS011;45705;55.592;37.460;2023-09-19T07:50:21;34.60;;;23.00;;
58294;SDS011;45705;55.592;37.460;2023-09-19T07:52:47;33.45;;;22.33;;
58294;SDS011;45705;55.592;37.460;2023-09-19T07:57:42;31.90;;;22.05;;
58294;SDS011;45705;55.592;37.460;2023-09-19T08:00:09;33.78;;;21.05;;
58294;SDS011;45705;55.592;37.460;2023-09-19T08:02:39;33.88;;;21.15;;
58294;SDS011;45705;55.592;37.460;2023-09-19T08:05:06;33.58;;;21.67;;
58294;SDS011;45705;55.592;37.460;2023-09-19T08:07:37;32.95;;;20.52;;
58294;SDS011;45705;55.592;37.460;2023-09-19T08:10:04;33.55;;;20.95;;
58294;SDS011;45705;55.592;37.460;2023-09-19T08:12:36;34.40;;;21.30;;
58294;SDS011;45705;55.592;37.460;2023-09-19T08:17:28;28.75;;;20.80;;
58294;SDS011;45705;55.592;37.460;2023-09-19T08:19:54;33.42;;;20.85;;
58294;SDS011;45705;55.592;37.460;2023-09-19T08:22:20;31.08;;;22.05;;
58294;SDS011;45705;55.592;37.460;2023-09-19T08:24:47;31.95;;;20.30;;
58294;SDS011;45705;55.592;37.460;2023-09-19T08:27:13;38.33;;;21.17;;
58294;SDS011;45705;55.592;37.460;2023-09-19T08:29:38;29.67;;;20.27;;
58294;SDS011;45705;55.592;37.460;2023-09-19T08:32:04;32.20;;;21.60;;
58294;SDS011;45705;55.592;37.460;2023-09-19T08:34:30;27.27;;;19.92;;
58294;SDS011;45705;55.592;37.460;2023-09-19T08:36:58;27.53;;;20.23;;
58294;SDS011;45705;55.592;37.460;2023-09-19T08:39:27;34.58;;;20.17;;
58294;SDS011;45705;55.592;37.460;2023-09-19T08:41:59;29.10;;;19.65;;
58294;SDS011;45705;55.592;37.460;2023-09-19T08:44:26;34.85;;;20.05;;
58294;SDS011;45705;55.592;37.460;2023-09-19T08:46:58;27.75;;;20.15;;
58294;SDS011;45705;55.592;37.460;2023-09-19T08:55:02;30.15;;;18.75;;
58294;SDS011;45705;55.592;37.460;2023-09-19T08:57:33;35.03;;;19.73;;
58294;SDS011;45705;55.592;37.460;2023-09-19T09:00:02;31.10;;;19.88;;
58294;SDS011;45705;55.592;37.460;2023-09-19T09:02:37;31.13;;;18.88;;
58294;SDS011;45705;55.592;37.460;2023-09-19T09:05:10;30.73;;;19.83;;
58294;SDS011;45705;55.592;37.460;2023-09-19T09:07:37;29.17;;;19.10;;
58294;SDS011;45705;55.592;37.460;2023-09-19T09:10:04;29.13;;;18.05;;
58294;SDS011;45705;55.592;37.460;2023-09-19T09:12:30;32.75;;;18.02;;
58294;SDS011;45705;55.592;37.460;2023-09-19T09:14:56;42.08;;;19.13;;
58294;SDS011;45705;55.592;37.460;2023-09-19T09:17:23;31.10;;;18.00;;
58294;SDS011;45705;55.592;37.460;2023-09-19T09:19:52;33.03;;;17.73;;
58294;SDS011;45705;55.592;37.460;2023-09-19T09:22:18;23.83;;;18.77;;
58294;SDS011;45705;55.592;37.460;2023-09-19T09:24:53;30.15;;;19.05;;
58294;SDS011;45705;55.592;37.460;2023-09-19T09:27:19;28.05;;;19.27;;
58294;SDS011;45705;55.592;37.460;2023-09-19T09:29:46;31.02;;;18.80;;
58294;SDS011;45705;55.592;37.460;2023-09-19T09:34:53;31.30;;;18.33;;
58294;SDS011;45705;55.592;37.460;2023-09-19T09:37:20;35.30;;;18.73;;
58294;SDS011;45705;55.592;37.460;2023-09-19T09:47:58;33.00;;;18.30;;
58294;SDS011;45705;55.592;37.460;2023-09-19T09:50:32;29.77;;;18.52;;
58294;SDS011;45705;55.592;37.460;2023-09-19T09:56:11;29.50;;;16.88;;
58294;SDS011;45705;55.592;37.460;2023-09-19T10:01:14;27.52;;;17.75;;
58294;SDS011;45705;55.592;37.460;2023-09-19T10:03:41;36.08;;;18.00;;
58294;SDS011;45705;55.592;37.460;2023-09-19T10:06:14;25.70;;;16.52;;
58294;SDS011;45705;55.592;37.460;2023-09-19T10:08:59;30.10;;;16.92;;
58294;SDS011;45705;55.592;37.460;2023-09-19T10:12:00;38.80;;;17.65;;
58294;SDS011;45705;55.592;37.460;2023-09-19T10:14:37;31.30;;;17.65;;
58294;SDS011;45705;55.592;37.460;2023-09-19T10:17:05;27.45;;;16.98;;
58294;SDS011;45705;55.592;37.460;2023-09-19T10:19:40;29.83;;;16.67;;
58294;SDS011;45705;55.592;37.460;2023-09-19T10:22:18;31.15;;;17.27;;
58294;SDS011;45705;55.592;37.460;2023-09-19T10:24:48;26.55;;;17.00;;
58294;SDS011;45705;55.592;37.460;2023-09-19T10:27:17;31.35;;;15.40;;
58294;SDS011;45705;55.592;37.460;2023-09-19T10:29:45;25.73;;;15.97;;
58294;SDS011;45705;55.592;37.460;2023-09-19T10:32:16;26.10;;;17.35;;
58294;SDS011;45705;55.592;37.460;2023-09-19T10:37:12;22.85;;;15.85;;
58294;SDS011;45705;55.592;37.460;2023-09-19T10:39:39;23.45;;;15.40;;
58294;SDS011;45705;55.592;37.460;2023-09-19T10:42:06;29.90;;;16.52;;
58294;SDS011;45705;55.592;37.460;2023-09-19T10:44:34;28.55;;;15.68;;
58294;SDS011;45705;55.592;37.460;2023-09-19T10:47:07;26.13;;;15.45;;
58294;SDS011;45705;55.592;37.460;2023-09-19T10:49:34;30.50;;;16.50;;
58294;SDS011;45705;55.592;37.460;2023-09-19T10:52:00;22.38;;;15.63;;
58294;SDS011;45705;55.592;37.460;2023-09-19T10:54:29;24.52;;;15.55;;
58294;SDS011;45705;55.592;37.460;2023-09-19T10:57:02;24.48;;;14.88;;
58294;SDS011;45705;55.592;37.460;2023-09-19T10:59:30;19.90;;;14.00;;
58294;SDS011;45705;55.592;37.460;2023-09-19T11:02:15;20.60;;;15.65;;
58294;SDS011;45705;55.592;37.460;2023-09-19T11:04:42;32.40;;;16.23;;
58294;SDS011;45705;55.592;37.460;2023-09-19T11:07:11;20.42;;;14.30;;
58294;SDS011;45705;55.592;37.460;2023-09-19T11:09:47;26.35;;;14.85;;
58294;SDS011;45705;55.592;37.460;2023-09-19T11:26:42;20.90;;;13.38;;
58294;SDS011;45705;55.592;37.460;2023-09-19T11:29:25;22.85;;;13.75;;
58294;SDS011;45705;55.592;37.460;2023-09-19T11:31:54;24.15;;;12.77;;
58294;SDS011;45705;55.592;37.460;2023-09-19T11:39:37;20.73;;;12.57;;
58294;SDS011;45705;55.592;37.460;2023-09-19T11:48:18;24.23;;;12.88;;
58294;SDS011;45705;55.592;37.460;2023-09-19T11:50:45;23.52;;;11.80;;
58294;SDS011;45705;55.592;37.460;2023-09-19T11:53:13;18.03;;;11.77;;
58294;SDS011;45705;55.592;37.460;2023-09-19T11:55:43;15.85;;;9.32;;
58294;SDS011;45705;55.592;37.460;2023-09-19T11:58:11;12.73;;;9.50;;
58294;SDS011;45705;55.592;37.460;2023-09-19T12:00:40;17.17;;;9.35;;
58294;SDS011;45705;55.592;37.460;2023-09-19T12:03:10;17.25;;;9.40;;
58294;SDS011;45705;55.592;37.460;2023-09-19T12:05:37;14.90;;;9.00;;
58294;SDS011;45705;55.592;37.460;2023-09-19T12:08:03;15.88;;;8.52;;
58294;SDS011;45705;55.592;37.460;2023-09-19T12:10:33;12.32;;;7.97;;
58294;SDS011;45705;55.592;37.460;2023-09-19T12:13:08;10.68;;;7.68;;
58294;SDS011;45705;55.592;37.460;2023-09-19T12:15:35;16.33;;;7.50;;
58294;SDS011;45705;55.592;37.460;2023-09-19T12:18:04;13.02;;;6.70;;
58294;SDS011;45705;55.592;37.460;2023-09-19T12:20:42;11.20;;;7.28;;
58294;SDS011;45705;55.592;37.460;2023-09-19T12:23:13;11.07;;;7.25;;
58294;SDS011;45705;55.592;37.460;2023-09-19T12:25:43;12.48;;;7.07;;
58294;SDS011;45705;55.592;37.460;2023-09-19T12:28:19;13.27;;;7.40;;
58294;SDS011;45705;55.592;37.460;2023-09-19T12:30:48;10.68;;;8.50;;
58294;SDS011;45705;55.592;37.460;2023-09-19T12:33:17;10.70;;;8.18;;
58294;SDS011;45705;55.592;37.460;2023-09-19T12:35:46;9.85;;;7.15;;
58294;SDS011;45705;55.592;37.460;2023-09-19T12:38:22;10.70;;;7.25;;
58294;SDS011;45705;55.592;37.460;2023-09-19T12:40:56;9.85;;;7.03;;
58294;SDS011;45705;55.592;37.460;2023-09-19T12:43:26;9.10;;;7.00;;
58294;SDS011;45705;55.592;37.460;2023-09-19T12:45:57;15.80;;;7.30;;
58294;SDS011;45705;55.592;37.460;2023-09-19T12:48:25;12.90;;;7.25;;
58294;SDS011;45705;55.592;37.460;2023-09-19T12:51:05;22.10;;;12.57;;
58294;SDS011;45705;55.592;37.460;2023-09-19T12:53:36;14.10;;;8.32;;
58294;SDS011;45705;55.592;37.460;2023-09-19T12:56:08;13.63;;;8.50;;
58294;SDS011;45705;55.592;37.460;2023-09-19T12:58:54;18.83;;;9.20;;
58294;SDS011;45705;55.592;37.460;2023-09-19T13:01:20;20.83;;;9.30;;
58294;SDS011;45705;55.592;37.460;2023-09-19T13:04:10;14.73;;;10.10;;
58294;SDS011;45705;55.592;37.460;2023-09-19T13:06:37;21.23;;;10.82;;
58294;SDS011;45705;55.592;37.460;2023-09-19T13:09:09;15.15;;;10.90;;
58294;SDS011;45705;55.592;37.460;2023-09-19T13:11:40;21.73;;;11.57;;
58294;SDS011;45705;55.592;37.460;2023-09-19T13:14:16;16.25;;;10.48;;
58294;SDS011;45705;55.592;37.460;2023-09-19T13:16:59;22.00;;;11.57;;
58294;SDS011;45705;55.592;37.460;2023-09-19T13:25:13;21.83;;;11.60;;
58294;SDS011;45705;55.592;37.460;2023-09-19T13:27:47;24.67;;;11.82;;
58294;SDS011;45705;55.592;37.460;2023-09-19T13:30:20;25.35;;;11.88;;
58294;SDS011;45705;55.592;37.460;2023-09-19T13:32:48;16.25;;;11.45;;
58294;SDS011;45705;55.592;37.460;2023-09-19T13:35:14;22.85;;;12.00;;
58294;SDS011;45705;55.592;37.460;2023-09-19T13:37:41;21.67;;;11.82;;
58294;SDS011;45705;55.592;37.460;2023-09-19T13:42:35;19.50;;;11.52;;
58294;SDS011;45705;55.592;37.460;2023-09-19T13:45:02;20.33;;;12.40;;
58294;SDS011;45705;55.592;37.460;2023-09-19T13:47:32;17.58;;;11.85;;
58294;SDS011;45705;55.592;37.460;2023-09-19T13:49:59;25.35;;;12.57;;
58294;SDS011;45705;55.592;37.460;2023-09-19T13:52:29;21.17;;;11.10;;
58294;SDS011;45705;55.592;37.460;2023-09-19T13:54:56;19.50;;;10.55;;
58294;SDS011;45705;55.592;37.460;2023-09-19T13:57:22;23.20;;;10.73;;
58294;SDS011;45705;55.592;37.460;2023-09-19T13:59:49;22.00;;;10.55;;
58294;SDS011;45705;55.592;37.460;2023-09-19T14:02:15;19.60;;;10.82;;
58294;SDS011;45705;55.592;37.460;2023-09-19T14:04:44;18.15;;;9.60;;
58294;SDS011;45705;55.592;37.460;2023-09-19T14:07:10;20.75;;;9.70;;
58294;SDS011;45705;55.592;37.460;2023-09-19T14:09:37;15.45;;;9.60;;
58294;SDS011;45705;55.592;37.460;2023-09-19T14:12:03;18.55;;;8.50;;
58294;SDS011;45705;55.592;37.460;2023-09-19T14:14:29;18.83;;;10.32;;
58294;SDS011;45705;55.592;37.460;2023-09-19T14:16:54;12.43;;;7.95;;
58294;SDS011;45705;55.592;37.460;2023-09-19T14:19:21;8.73;;;6.65;;
58294;SDS011;45705;55.592;37.460;2023-09-19T14:21:47;15.95;;;9.50;;
58294;SDS011;45705;55.592;37.460;2023-09-19T14:24:18;13.80;;;7.88;;
58294;SDS011;45705;55.592;37.460;2023-09-19T14:26:44;12.23;;;7.65;;
58294;SDS011;45705;55.592;37.460;2023-09-19T14:29:11;12.05;;;8.40;;
58294;SDS011;45705;55.592;37.460;2023-09-19T14:31:38;10.75;;;6.38;;
58294;SDS011;45705;55.592;37.460;2023-09-19T14:34:05;10.02;;;6.80;;
58294;SDS011;45705;55.592;37.460;2023-09-19T14:36:32;11.25;;;6.95;;
58294;SDS011;45705;55.592;37.460;2023-09-19T14:38:58;13.07;;;7.05;;
58294;SDS011;45705;55.592;37.460;2023-09-19T14:41:25;11.25;;;7.50;;
58294;SDS011;45705;55.592;37.460;2023-09-19T14:43:51;13.07;;;6.70;;
58294;SDS011;45705;55.592;37.460;2023-09-19T14:46:17;14.20;;;7.60;;
58294;SDS011;45705;55.592;37.460;2023-09-19T14:48:44;13.80;;;7.47;;
58294;SDS011;45705;55.592;37.460;2023-09-19T14:51:13;13.27;;;7.63;;
58294;SDS011;45705;55.592;37.460;2023-09-19T14:53:40;12.35;;;7.32;;
58294;SDS011;45705;55.592;37.460;2023-09-19T14:56:09;10.95;;;7.55;;
58294;SDS011;45705;55.592;37.460;2023-09-19T14:58:36;10.10;;;7.40;;
58294;SDS011;45705;55.592;37.460;2023-09-19T15:01:07;16.00;;;7.43;;
58294;SDS011;45705;55.592;37.460;2023-09-19T15:03:38;14.07;;;7.95;;
58294;SDS011;45705;55.592;37.460;2023-09-19T15:08:34;13.68;;;7.15;;
58294;SDS011;45705;55.592;37.460;2023-09-19T15:11:04;11.65;;;7.03;;
58294;SDS011;45705;55.592;37.460;2023-09-19T15:13:31;13.88;;;7.15;;
58294;SDS011;45705;55.592;37.460;2023-09-19T15:16:06;16.02;;;7.80;;
58294;SDS011;45705;55.592;37.460;2023-09-19T15:18:40;13.70;;;7.55;;
58294;SDS011;45705;55.592;37.460;2023-09-19T15:21:08;14.55;;;7.00;;
58294;SDS011;45705;55.592;37.460;2023-09-19T15:23:35;12.85;;;7.57;;
58294;SDS011;45705;55.592;37.460;2023-09-19T15:26:02;18.80;;;8.20;;
58294;SDS011;45705;55.592;37.460;2023-09-19T15:28:29;12.70;;;7.95;;
58294;SDS011;45705;55.592;37.460;2023-09-19T15:31:03;15.27;;;8.20;;
58294;SDS011;45705;55.592;37.460;2023-09-19T15:33:33;16.55;;;8.05;;
58294;SDS011;45705;55.592;37.460;2023-09-19T15:38:32;18.00;;;8.02;;
58294;SDS011;45705;55.592;37.460;2023-09-19T15:41:26;12.80;;;7.85;;
58294;SDS011;45705;55.592;37.460;2023-09-19T15:43:53;14.60;;;8.35;;